Orchard, Iowa
Current Conditions -  °F | °C
As of 10:15 AM on Thursday 29 Jan 2015 (Local Time) from KCCY Reporting Station
Overcast Overcast  
Wind Chill: 19°   Ceiling: 1200
Heat Index: 32°   Visibility: 10mi
Dew Point: 30°   Wind: 24mph
Humidity: 93%   Direction: 330°NNW
Pressure: 30.13"   Gusts: 35mph
Location:  43.23°N, 92.77°W
Report Text: KCCY 291615Z AUTO 33021G30KT 10SM BKN012 OVC017 M00/M01 A3013 RMK AO2
Loading
Personal Weather Stations






























Interactive Weather Map New forecast layout! Learn more

10-Day Weather Forecast

Advertisements
Track Severe Weather on mobile